createdAt,value
2023-01-30T00:01:00.482Z,20.08
2023-01-30T00:03:28.237Z,21.20
2023-01-30T00:05:56.060Z,20.10
2023-01-30T00:08:23.338Z,20.48
2023-01-30T00:10:50.491Z,18.67
2023-01-30T00:13:17.564Z,19.70
2023-01-30T00:15:44.657Z,19.63
2023-01-30T00:18:11.700Z,18.75
2023-01-30T00:20:38.749Z,19.17
2023-01-30T00:23:06.081Z,17.65
2023-01-30T00:25:33.296Z,17.70
2023-01-30T00:28:02.102Z,17.08
2023-01-30T00:30:29.972Z,14.85
2023-01-30T00:32:58.483Z,16.58
2023-01-30T00:35:28.682Z,16.30
2023-01-30T00:37:58.024Z,14.27
2023-01-30T00:40:26.925Z,14.35
2023-01-30T00:43:13.641Z,13.82
2023-01-30T00:46:03.806Z,13.38
2023-01-30T00:48:31.856Z,11.63
2023-01-30T00:50:59.067Z,13.13
2023-01-30T00:53:26.762Z,12.02
2023-01-30T00:55:55.304Z,10.88
2023-01-30T00:58:23.830Z,10.43
2023-01-30T01:00:51.481Z,10.82
2023-01-30T01:03:19.335Z,9.82
2023-01-30T01:05:46.679Z,9.27
2023-01-30T01:08:14.908Z,9.63
2023-01-30T01:10:42.189Z,10.07
2023-01-30T01:13:10.479Z,9.82
2023-01-30T01:15:37.940Z,10.18
2023-01-30T01:18:05.187Z,9.40
2023-01-30T01:20:32.250Z,10.65
2023-01-30T01:22:59.314Z,10.93
2023-01-30T01:25:26.478Z,10.27
2023-01-30T01:27:54.547Z,11.70
2023-01-30T01:30:21.655Z,11.38
2023-01-30T01:32:48.746Z,11.45
2023-01-30T01:35:16.167Z,11.30
2023-01-30T01:37:43.496Z,12.43
2023-01-30T01:40:36.419Z,12.57
2023-01-30T01:43:16.974Z,11.23
2023-01-30T01:45:45.155Z,11.60
2023-01-30T01:48:38.445Z,11.90
2023-01-30T01:51:08.590Z,11.25
2023-01-30T01:53:42.416Z,12.43
2023-01-30T01:56:13.714Z,11.75
2023-01-30T01:58:50.726Z,11.57
2023-01-30T02:01:18.262Z,11.48
2023-01-30T02:03:49.359Z,11.48
2023-01-30T02:06:18.474Z,9.55
2023-01-30T02:08:53.735Z,10.35
2023-01-30T02:11:26.499Z,9.98
2023-01-30T02:13:53.726Z,10.23
2023-01-30T02:16:20.826Z,10.43
2023-01-30T02:18:48.239Z,10.45
2023-01-30T02:22:12.149Z,10.02
2023-01-30T02:25:04.401Z,9.70
2023-01-30T02:28:02.144Z,10.07
2023-01-30T02:31:01.019Z,9.20
2023-01-30T02:33:46.542Z,9.35
2023-01-30T02:36:46.380Z,8.30
2023-01-30T02:39:19.188Z,8.65
2023-01-30T02:41:48.679Z,8.90
2023-01-30T02:44:27.067Z,8.77
2023-01-30T02:47:04.173Z,8.13
2023-01-30T02:50:17.569Z,7.93
2023-01-30T02:52:45.087Z,8.43
2023-01-30T02:55:24.462Z,7.38
2023-01-30T02:57:51.766Z,8.15
2023-01-30T03:00:33.331Z,7.65
2023-01-30T03:03:31.642Z,7.88
2023-01-30T03:06:01.537Z,7.20
2023-01-30T03:08:37.190Z,7.68
2023-01-30T03:11:09.525Z,6.43
2023-01-30T03:14:00.983Z,7.45
2023-01-30T03:16:47.930Z,7.20
2023-01-30T03:19:15.104Z,7.05
2023-01-30T03:21:44.717Z,6.97
2023-01-30T03:24:13.335Z,6.82
2023-01-30T03:26:46.846Z,7.65
2023-01-30T03:29:14.196Z,6.00
2023-01-30T03:31:41.427Z,6.40
2023-01-30T03:34:08.552Z,5.25
2023-01-30T03:36:35.693Z,5.07
2023-01-30T03:39:03.667Z,4.47
2023-01-30T03:41:30.921Z,4.57
2023-01-30T03:43:58.228Z,5.25
2023-01-30T03:46:25.353Z,5.15
2023-01-30T03:48:52.493Z,4.72
2023-01-30T03:51:19.637Z,5.38
2023-01-30T03:53:46.778Z,4.38
2023-01-30T03:56:14.126Z,4.15
2023-01-30T03:58:41.183Z,4.57
2023-01-30T04:01:08.206Z,4.65
2023-01-30T04:03:35.416Z,4.45
2023-01-30T04:06:02.560Z,4.22
2023-01-30T04:08:29.705Z,4.15
2023-01-30T04:10:57.043Z,3.95
2023-01-30T04:13:24.103Z,5.03
2023-01-30T04:15:51.196Z,4.50
2023-01-30T04:18:18.267Z,4.45
2023-01-30T04:20:45.680Z,4.43
2023-01-30T04:23:12.772Z,5.00
2023-01-30T04:25:39.860Z,4.78
2023-01-30T04:28:07.312Z,4.40
2023-01-30T04:30:34.472Z,3.75
2023-01-30T04:33:01.601Z,4.35
2023-01-30T04:35:28.670Z,4.32
2023-01-30T04:37:55.780Z,4.70
2023-01-30T04:40:22.933Z,4.35
2023-01-30T04:42:49.989Z,3.38
2023-01-30T04:45:17.283Z,3.15
2023-01-30T04:47:44.476Z,3.13
2023-01-30T04:50:11.757Z,3.90
2023-01-30T04:52:39.890Z,3.00
2023-01-30T04:55:07.587Z,3.78
2023-01-30T04:57:34.636Z,2.72
2023-01-30T05:00:01.677Z,3.28
2023-01-30T05:02:28.823Z,3.05
2023-01-30T05:04:55.839Z,2.95
2023-01-30T05:07:22.838Z,2.63
2023-01-30T05:09:49.917Z,3.38
2023-01-30T05:12:17.003Z,3.13
2023-01-30T05:14:44.140Z,3.03
2023-01-30T05:17:11.294Z,3.00
2023-01-30T05:19:38.374Z,3.58
2023-01-30T05:22:05.929Z,3.78
2023-01-30T05:24:32.975Z,2.97
2023-01-30T05:27:00.042Z,3.85
2023-01-30T05:29:27.070Z,2.85
2023-01-30T05:31:54.113Z,2.85
2023-01-30T05:34:22.059Z,3.03
2023-01-30T05:36:49.148Z,2.78
2023-01-30T05:39:16.195Z,2.42
2023-01-30T05:41:43.310Z,2.97
2023-01-30T05:44:11.772Z,2.28
2023-01-30T05:46:39.721Z,2.55
2023-01-30T05:49:07.465Z,2.33
2023-01-30T05:51:34.483Z,3.10
2023-01-30T05:54:01.576Z,3.30
2023-01-30T05:56:28.674Z,3.65
2023-01-30T05:58:57.060Z,3.30
2023-01-30T06:01:24.452Z,2.92
2023-01-30T06:03:52.231Z,3.47
2023-01-30T06:06:19.783Z,2.47
2023-01-30T06:08:46.870Z,2.33
2023-01-30T06:11:15.927Z,3.15
2023-01-30T06:13:43.304Z,3.83
2023-01-30T06:16:12.595Z,2.72
2023-01-30T06:18:40.188Z,3.50
2023-01-30T06:21:07.980Z,3.10
2023-01-30T06:23:35.252Z,3.10
2023-01-30T06:26:04.313Z,2.55
2023-01-30T06:28:32.095Z,3.53
2023-01-30T06:30:59.213Z,3.28
2023-01-30T06:33:26.285Z,2.53
2023-01-30T06:35:54.457Z,2.58
2023-01-30T06:38:21.964Z,2.90
2023-01-30T06:40:50.158Z,2.22
2023-01-30T06:43:17.817Z,3.10
2023-01-30T06:45:44.887Z,3.20
2023-01-30T06:48:12.082Z,1.70
2023-01-30T06:50:39.308Z,3.40
2023-01-30T06:53:08.076Z,3.33
2023-01-30T06:55:36.346Z,2.85
2023-01-30T06:58:08.655Z,2.95
2023-01-30T07:00:39.471Z,3.88
2023-01-30T07:03:10.635Z,3.65
2023-01-30T07:05:39.366Z,3.35
2023-01-30T07:08:06.452Z,4.03
2023-01-30T07:10:33.684Z,3.50
2023-01-30T07:13:00.733Z,3.47
2023-01-30T07:15:28.408Z,4.45
2023-01-30T07:17:55.395Z,2.90
2023-01-30T07:20:22.721Z,4.22
2023-01-30T07:22:55.655Z,3.53
2023-01-30T07:25:24.521Z,3.90
2023-01-30T07:27:52.313Z,3.30
2023-01-30T07:30:19.993Z,3.85
2023-01-30T07:32:52.214Z,2.63
2023-01-30T07:35:19.581Z,4.05
2023-01-30T07:37:48.295Z,3.28
2023-01-30T07:40:16.123Z,3.63
2023-01-30T07:42:43.300Z,3.30
2023-01-30T07:45:11.048Z,3.25
2023-01-30T07:47:38.117Z,2.92
2023-01-30T07:50:05.993Z,3.97
2023-01-30T07:52:33.396Z,3.08
2023-01-30T07:55:01.582Z,5.53
2023-01-30T07:57:30.208Z,3.95
2023-01-30T07:59:57.322Z,3.47
2023-01-30T08:02:24.366Z,3.55
2023-01-30T08:04:51.886Z,3.70
2023-01-30T08:07:19.295Z,3.75
2023-01-30T08:09:46.342Z,3.30
2023-01-30T08:12:13.626Z,4.13
2023-01-30T08:14:40.633Z,3.45
2023-01-30T08:17:07.716Z,3.60
2023-01-30T08:19:34.814Z,4.10
2023-01-30T08:22:01.931Z,3.92
2023-01-30T08:24:29.025Z,3.10
2023-01-30T08:26:56.128Z,4.32
2023-01-30T08:29:23.136Z,2.90
2023-01-30T08:31:50.189Z,4.55
2023-01-30T08:34:17.321Z,3.40
2023-01-30T08:36:46.619Z,3.83
2023-01-30T08:39:14.065Z,3.83
2023-01-30T08:41:43.096Z,3.20
2023-01-30T08:44:11.145Z,3.22
2023-01-30T08:46:39.216Z,4.15
2023-01-30T08:49:07.169Z,4.20
2023-01-30T08:51:34.295Z,3.95
2023-01-30T08:54:01.575Z,3.20
2023-01-30T08:56:28.837Z,2.70
2023-01-30T08:58:55.889Z,2.80
2023-01-30T09:01:22.965Z,3.90
2023-01-30T09:03:50.065Z,3.17
2023-01-30T09:06:17.344Z,3.33
2023-01-30T09:08:44.466Z,3.70
2023-01-30T09:11:12.693Z,4.20
2023-01-30T09:13:43.660Z,3.65
2023-01-30T09:16:11.772Z,2.90
2023-01-30T09:18:43.420Z,3.03
2023-01-30T09:21:12.144Z,3.30
2023-01-30T09:23:39.194Z,3.58
2023-01-30T09:26:06.958Z,3.53
2023-01-30T09:28:35.167Z,3.25
2023-01-30T09:31:03.000Z,4.20
2023-01-30T09:33:30.217Z,4.78
2023-01-30T09:35:57.511Z,3.47
2023-01-30T09:38:24.649Z,4.15
2023-01-30T09:41:00.749Z,3.63
2023-01-30T09:43:44.886Z,3.72
2023-01-30T09:48:55.419Z,3.00
2023-01-30T09:51:39.633Z,2.85
2023-01-30T09:54:24.341Z,3.35
2023-01-30T09:56:57.265Z,3.45
2023-01-30T09:59:32.568Z,3.35
2023-01-30T10:02:27.401Z,3.58
2023-01-30T10:05:01.738Z,3.78
2023-01-30T10:07:53.319Z,3.15
2023-01-30T10:10:42.854Z,4.38
2023-01-30T10:13:33.367Z,2.85
2023-01-30T10:16:03.403Z,3.28
2023-01-30T10:18:48.426Z,3.45
2023-01-30T10:21:47.684Z,3.05
2023-01-30T10:24:26.582Z,3.05
2023-01-30T10:26:55.514Z,3.08
2023-01-30T10:29:31.579Z,4.38
2023-01-30T10:32:04.884Z,2.42
2023-01-30T10:34:35.433Z,3.95
2023-01-30T10:37:29.376Z,3.30
2023-01-30T10:40:20.905Z,3.05
2023-01-30T10:43:07.808Z,2.75
2023-01-30T10:45:48.732Z,3.47
2023-01-30T10:48:18.753Z,2.55
2023-01-30T10:50:54.058Z,3.47
2023-01-30T10:54:15.787Z,2.38
2023-01-30T10:56:52.469Z,3.22
2023-01-30T10:59:59.431Z,4.25
2023-01-30T11:02:37.234Z,3.17
2023-01-30T11:05:10.014Z,3.60
2023-01-30T11:07:37.193Z,3.63
2023-01-30T11:10:20.154Z,2.78
2023-01-30T11:12:49.197Z,2.80
2023-01-30T11:15:16.585Z,2.97
2023-01-30T11:17:47.894Z,3.17
2023-01-30T11:20:20.068Z,3.67
2023-01-30T11:23:06.150Z,3.42
2023-01-30T11:25:49.199Z,4.57
2023-01-30T11:28:17.971Z,3.15
2023-01-30T11:30:53.132Z,3.17
2023-01-30T11:33:22.356Z,3.60
2023-01-30T11:35:58.413Z,4.88
2023-01-30T11:38:29.016Z,4.00
2023-01-30T11:41:23.041Z,3.33
2023-01-30T11:43:51.132Z,2.78
2023-01-30T11:46:21.108Z,3.50
2023-01-30T11:49:09.078Z,3.78
2023-01-30T11:51:49.109Z,4.60
2023-01-30T11:54:20.780Z,3.58
2023-01-30T11:56:58.313Z,2.95
2023-01-30T11:59:37.152Z,3.80
2023-01-30T12:02:06.049Z,3.10
2023-01-30T12:04:33.766Z,3.70
2023-01-30T12:07:20.346Z,3.75
2023-01-30T12:09:50.255Z,3.63
2023-01-30T12:12:37.598Z,2.53
2023-01-30T12:15:22.152Z,3.58
2023-01-30T12:17:49.105Z,4.38
2023-01-30T12:20:40.760Z,3.53
2023-01-30T12:23:07.707Z,4.00
2023-01-30T12:25:56.241Z,4.40
2023-01-30T12:29:01.861Z,4.05
2023-01-30T12:31:37.151Z,3.47
2023-01-30T12:34:04.469Z,4.20
2023-01-30T12:36:43.734Z,4.22
2023-01-30T12:39:48.498Z,3.53
2023-01-30T12:42:33.785Z,3.65
2023-01-30T12:45:29.260Z,3.85
2023-01-30T12:48:05.344Z,3.05
2023-01-30T12:51:09.306Z,3.75
2023-01-30T12:54:12.042Z,3.58
2023-01-30T12:57:03.977Z,4.15
2023-01-30T12:59:51.553Z,3.80
2023-01-30T13:02:49.939Z,3.78
2023-01-30T13:05:56.086Z,4.50
2023-01-30T13:08:33.496Z,3.05
2023-01-30T13:11:20.436Z,3.53
2023-01-30T13:14:12.198Z,4.00
2023-01-30T13:16:41.787Z,4.10
2023-01-30T13:19:21.106Z,3.45
2023-01-30T13:22:01.777Z,3.28
2023-01-30T13:24:48.413Z,3.42
2023-01-30T13:27:18.970Z,3.10
2023-01-30T13:29:48.545Z,2.88
2023-01-30T13:32:34.042Z,3.47
2023-01-30T13:35:04.493Z,3.33
2023-01-30T13:37:32.531Z,3.45
2023-01-30T13:40:20.148Z,4.18
2023-01-30T13:42:56.930Z,3.40
2023-01-30T13:45:32.135Z,4.03
2023-01-30T13:48:16.482Z,3.25
2023-01-30T13:51:08.645Z,3.50
2023-01-30T13:54:08.602Z,3.85
2023-01-30T13:56:54.222Z,3.30
2023-01-30T13:59:43.148Z,3.65
2023-01-30T14:02:18.279Z,2.88
2023-01-30T14:04:48.086Z,3.65
2023-01-30T14:07:15.134Z,3.35
2023-01-30T14:10:08.349Z,3.83
2023-01-30T14:12:47.694Z,3.90
2023-01-30T14:15:14.775Z,4.15
2023-01-30T14:18:07.100Z,3.60
2023-01-30T14:20:43.320Z,3.13
2023-01-30T14:23:16.108Z,3.35
2023-01-30T14:25:46.411Z,3.97
2023-01-30T14:28:13.349Z,3.38
2023-01-30T14:30:48.666Z,3.08
2023-01-30T14:33:22.008Z,3.30
2023-01-30T14:36:00.992Z,4.07
2023-01-30T14:38:33.029Z,4.68
2023-01-30T14:41:00.008Z,3.55
2023-01-30T14:43:37.202Z,3.80
2023-01-30T14:46:08.771Z,3.40
2023-01-30T14:48:44.582Z,3.70
2023-01-30T14:51:12.007Z,2.53
2023-01-30T14:54:03.867Z,4.65
2023-01-30T14:56:54.920Z,3.30
2023-01-30T14:59:36.533Z,4.13
2023-01-30T15:02:21.734Z,3.45
2023-01-30T15:05:09.610Z,3.80
2023-01-30T15:07:46.957Z,3.78
2023-01-30T15:10:39.816Z,3.45
2023-01-30T15:13:31.836Z,3.85
2023-01-30T15:16:08.141Z,3.30
2023-01-30T15:18:52.038Z,3.65
2023-01-30T15:21:29.542Z,2.83
2023-01-30T15:24:17.114Z,3.83
2023-01-30T15:26:44.206Z,3.67
2023-01-30T15:29:29.839Z,3.38
2023-01-30T15:32:01.888Z,3.50
2023-01-30T15:34:36.132Z,3.72
2023-01-30T15:37:03.249Z,3.38
2023-01-30T15:39:30.439Z,4.53
2023-01-30T15:42:06.161Z,2.78
2023-01-30T15:44:44.830Z,3.75
2023-01-30T15:47:14.483Z,4.10
2023-01-30T15:50:02.631Z,3.55
2023-01-30T15:52:49.284Z,3.63
2023-01-30T15:55:26.646Z,3.20
2023-01-30T15:57:58.354Z,3.55
2023-01-30T16:00:59.625Z,4.45
2023-01-30T16:03:34.310Z,4.35
2023-01-30T16:06:05.001Z,3.90
2023-01-30T16:08:34.938Z,3.42
2023-01-30T16:11:02.692Z,4.20
2023-01-30T16:13:29.975Z,4.28
2023-01-30T16:16:12.592Z,3.95
2023-01-30T16:18:49.342Z,2.67
2023-01-30T16:21:19.718Z,3.38
2023-01-30T16:24:06.662Z,3.35
2023-01-30T16:26:36.138Z,3.10
2023-01-30T16:29:13.593Z,2.35
2023-01-30T16:31:41.646Z,3.65
2023-01-30T16:34:23.915Z,3.78
2023-01-30T16:36:51.005Z,2.20
2023-01-30T16:39:33.850Z,2.88
2023-01-30T16:42:03.318Z,3.55
2023-01-30T16:44:32.076Z,3.17
2023-01-30T16:46:59.016Z,3.20
2023-01-30T16:49:28.698Z,3.65
2023-01-30T16:52:04.967Z,3.13
2023-01-30T16:54:46.463Z,3.60
2023-01-30T16:57:36.494Z,4.13
2023-01-30T17:00:09.709Z,3.60
2023-01-30T17:02:41.252Z,3.85
2023-01-30T17:05:10.971Z,4.03
2023-01-30T17:07:38.112Z,3.78
2023-01-30T17:10:05.751Z,3.83
2023-01-30T17:12:37.940Z,4.25
2023-01-30T17:15:13.524Z,3.30
2023-01-30T17:17:43.884Z,4.00
2023-01-30T17:20:12.317Z,3.53
2023-01-30T17:22:44.695Z,4.15
2023-01-30T17:25:29.510Z,3.90
2023-01-30T17:27:57.512Z,4.15
2023-01-30T17:30:24.664Z,4.45
2023-01-30T17:32:52.127Z,3.65
2023-01-30T17:35:19.413Z,4.68
2023-01-30T17:37:59.855Z,4.53
2023-01-30T17:40:37.372Z,4.40
2023-01-30T17:43:04.676Z,4.03
2023-01-30T17:45:31.750Z,2.88
2023-01-30T17:47:58.803Z,4.38
2023-01-30T17:50:25.849Z,3.60
2023-01-30T17:52:52.860Z,3.13
2023-01-30T17:55:21.608Z,2.88
2023-01-30T17:57:49.386Z,4.03
2023-01-30T18:00:21.534Z,4.03
2023-01-30T18:02:49.046Z,3.22
2023-01-30T18:05:16.296Z,3.53
2023-01-30T18:07:43.842Z,3.95
2023-01-30T18:10:15.384Z,3.03
2023-01-30T18:12:42.911Z,3.03
2023-01-30T18:15:12.425Z,3.17
2023-01-30T18:17:46.053Z,2.83
2023-01-30T18:20:15.805Z,3.22
2023-01-30T18:22:43.143Z,2.58
2023-01-30T18:25:13.355Z,2.03
2023-01-30T18:27:43.932Z,2.90
2023-01-30T18:30:14.507Z,2.80
2023-01-30T18:32:52.069Z,2.20
2023-01-30T18:35:21.445Z,2.72
2023-01-30T18:37:49.835Z,3.67
2023-01-30T18:40:18.118Z,3.33
2023-01-30T18:42:45.864Z,4.53
2023-01-30T18:45:13.203Z,4.63
2023-01-30T18:47:40.326Z,3.83
2023-01-30T18:50:07.583Z,3.78
2023-01-30T18:52:34.608Z,4.70
2023-01-30T18:55:01.640Z,3.85
2023-01-30T18:57:28.721Z,5.20
2023-01-30T18:59:55.715Z,4.25
2023-01-30T19:02:22.887Z,5.43
2023-01-30T19:04:49.963Z,4.20
2023-01-30T19:07:17.043Z,4.90
2023-01-30T19:09:44.157Z,3.58
2023-01-30T19:12:29.669Z,4.35
2023-01-30T19:14:56.901Z,4.25
2023-01-30T19:17:23.951Z,3.70
2023-01-30T19:19:51.343Z,3.70
2023-01-30T19:22:18.389Z,3.88
2023-01-30T19:24:45.426Z,3.35
2023-01-30T19:27:13.812Z,3.65
2023-01-30T19:29:44.043Z,3.60
2023-01-30T19:32:11.092Z,2.80
2023-01-30T19:34:38.612Z,3.67
2023-01-30T19:37:06.745Z,3.30
2023-01-30T19:39:33.811Z,4.32
2023-01-30T19:42:01.013Z,4.03
2023-01-30T19:44:28.674Z,4.60
2023-01-30T19:46:55.854Z,4.45
2023-01-30T19:49:23.011Z,3.70
2023-01-30T19:51:50.067Z,3.75
2023-01-30T19:54:18.686Z,3.65
2023-01-30T19:56:48.386Z,4.80
2023-01-30T19:59:16.663Z,3.08
2023-01-30T20:01:43.864Z,3.88
2023-01-30T20:04:11.082Z,5.65
2023-01-30T20:06:38.297Z,5.43
2023-01-30T20:09:08.090Z,5.20
2023-01-30T20:11:37.103Z,5.38
2023-01-30T20:14:08.584Z,6.03
2023-01-30T20:16:37.896Z,4.97
2023-01-30T20:19:08.931Z,4.93
2023-01-30T20:21:36.633Z,5.45
2023-01-30T20:24:04.383Z,4.90
2023-01-30T20:26:37.306Z,5.57
2023-01-30T20:29:08.105Z,4.95
2023-01-30T20:31:38.289Z,7.10
2023-01-30T20:34:08.338Z,10.63
2023-01-30T20:36:35.738Z,8.13
2023-01-30T20:39:04.427Z,5.40
2023-01-30T20:41:37.286Z,4.68
2023-01-30T20:44:07.137Z,4.95
2023-01-30T20:46:41.470Z,5.72
2023-01-30T20:49:30.506Z,5.57
2023-01-30T20:51:58.158Z,6.50
2023-01-30T20:54:25.440Z,5.30
2023-01-30T20:56:54.107Z,4.72
2023-01-30T20:59:24.322Z,5.53
2023-01-30T21:01:53.271Z,6.88
2023-01-30T21:04:22.415Z,6.47
2023-01-30T21:06:49.472Z,5.47
2023-01-30T21:09:22.447Z,7.55
2023-01-30T21:11:52.722Z,5.15
2023-01-30T21:14:19.842Z,5.05
2023-01-30T21:16:47.406Z,5.10
2023-01-30T21:19:17.203Z,5.75
2023-01-30T21:21:50.646Z,4.35
2023-01-30T21:24:22.411Z,8.25
2023-01-30T21:26:50.617Z,10.85
2023-01-30T21:29:20.913Z,5.75
2023-01-30T21:31:49.749Z,4.88
2023-01-30T21:34:16.928Z,4.45
2023-01-30T21:36:44.021Z,4.72
2023-01-30T21:39:31.831Z,5.00
2023-01-30T21:42:17.780Z,4.03
2023-01-30T21:44:44.879Z,4.38
2023-01-30T21:47:11.959Z,4.10
2023-01-30T21:49:40.548Z,4.68
2023-01-30T21:52:07.577Z,3.80
2023-01-30T21:54:34.579Z,4.95
2023-01-30T21:57:02.583Z,4.05
2023-01-30T21:59:31.401Z,5.28
2023-01-30T22:01:58.475Z,3.90
2023-01-30T22:04:25.521Z,3.70
2023-01-30T22:06:52.526Z,3.03
2023-01-30T22:09:19.553Z,3.67
2023-01-30T22:11:46.662Z,4.22
2023-01-30T22:14:14.535Z,3.95
2023-01-30T22:16:42.039Z,3.60
2023-01-30T22:19:09.813Z,3.67
2023-01-30T22:21:40.575Z,4.40
2023-01-30T22:24:09.501Z,3.38
2023-01-30T22:26:37.034Z,3.20
2023-01-30T22:29:05.931Z,3.08
2023-01-30T22:31:36.346Z,3.65
2023-01-30T22:34:04.411Z,2.92
2023-01-30T22:36:33.561Z,2.63
2023-01-30T22:39:01.781Z,3.70
2023-01-30T22:41:31.990Z,3.58
2023-01-30T22:43:59.786Z,3.45
2023-01-30T22:46:32.940Z,3.05
2023-01-30T22:49:01.611Z,3.65
2023-01-30T22:51:33.901Z,3.47
2023-01-30T22:54:04.055Z,3.28
2023-01-30T22:56:40.660Z,3.03
2023-01-30T22:59:08.529Z,4.55
2023-01-30T23:01:43.389Z,3.05
2023-01-30T23:04:13.107Z,2.25
2023-01-30T23:06:41.101Z,3.33
2023-01-30T23:09:10.167Z,2.22
2023-01-30T23:12:06.199Z,3.05
2023-01-30T23:14:33.474Z,3.75
2023-01-30T23:17:00.584Z,3.70
2023-01-30T23:19:28.266Z,3.08
2023-01-30T23:21:55.291Z,3.58
2023-01-30T23:24:22.350Z,3.50
2023-01-30T23:26:51.160Z,3.65
2023-01-30T23:29:20.067Z,3.05
2023-01-30T23:31:47.839Z,2.72
2023-01-30T23:34:17.354Z,3.10
2023-01-30T23:36:45.877Z,2.25
2023-01-30T23:39:14.045Z,3.47
2023-01-30T23:41:42.334Z,2.90
2023-01-30T23:44:10.041Z,2.83
2023-01-30T23:46:40.129Z,3.05
2023-01-30T23:49:10.581Z,2.50
2023-01-30T23:51:39.860Z,3.08
2023-01-30T23:54:07.919Z,3.30
2023-01-30T23:56:37.643Z,2.25
2023-01-30T23:59:05.831Z,3.00
